sensor_id;sensor_type;location;lat;lon;timestamp;temperature;humidity
15156;DHT22;7678;50.058;8.306;2023-02-21T00:01:39;5.70;99.90
15156;DHT22;7678;50.058;8.306;2023-02-21T00:04:25;5.50;99.90
15156;DHT22;7678;50.058;8.306;2023-02-21T00:07:10;5.30;99.90
15156;DHT22;7678;50.058;8.306;2023-02-21T00:09:55;5.40;99.90
15156;DHT22;7678;50.058;8.306;2023-02-21T00:12:41;5.30;99.90
15156;DHT22;7678;50.058;8.306;2023-02-21T00:15:26;5.50;99.90
15156;DHT22;7678;50.058;8.306;2023-02-21T00:18:13;5.60;99.90
15156;DHT22;7678;50.058;8.306;2023-02-21T00:20:59;5.30;99.90
15156;DHT22;7678;50.058;8.306;2023-02-21T00:23:44;5.30;99.90
15156;DHT22;7678;50.058;8.306;2023-02-21T00:26:30;5.10;99.90
15156;DHT22;7678;50.058;8.306;2023-02-21T00:29:15;5.10;99.90
15156;DHT22;7678;50.058;8.306;2023-02-21T00:32:01;5.00;99.90
15156;DHT22;7678;50.058;8.306;2023-02-21T00:34:48;4.90;99.90
15156;DHT22;7678;50.058;8.306;2023-02-21T00:37:33;5.10;99.90
15156;DHT22;7678;50.058;8.306;2023-02-21T00:40:18;5.20;99.90
15156;DHT22;7678;50.058;8.306;2023-02-21T00:43:04;5.00;99.90
15156;DHT22;7678;50.058;8.306;2023-02-21T00:45:50;5.00;99.90
15156;DHT22;7678;50.058;8.306;2023-02-21T00:48:35;5.00;99.90
15156;DHT22;7678;50.058;8.306;2023-02-21T00:51:22;4.80;99.90
15156;DHT22;7678;50.058;8.306;2023-02-21T00:54:07;4.90;99.90
15156;DHT22;7678;50.058;8.306;2023-02-21T00:56:53;4.80;99.90
15156;DHT22;7678;50.058;8.306;2023-02-21T00:59:38;4.70;99.90
15156;DHT22;7678;50.058;8.306;2023-02-21T01:02:24;4.60;99.90
15156;DHT22;7678;50.058;8.306;2023-02-21T01:05:09;4.60;99.90
15156;DHT22;7678;50.058;8.306;2023-02-21T01:07:56;4.70;99.90
15156;DHT22;7678;50.058;8.306;2023-02-21T01:10:42;4.70;99.90
15156;DHT22;7678;50.058;8.306;2023-02-21T01:13:27;4.70;99.90
15156;DHT22;7678;50.058;8.306;2023-02-21T01:16:13;4.50;99.90
15156;DHT22;7678;50.058;8.306;2023-02-21T01:18:58;4.30;99.90
15156;DHT22;7678;50.058;8.306;2023-02-21T01:21:44;4.40;99.90
15156;DHT22;7678;50.058;8.306;2023-02-21T01:24:31;4.60;99.90
15156;DHT22;7678;50.058;8.306;2023-02-21T01:27:16;4.40;99.90
15156;DHT22;7678;50.058;8.306;2023-02-21T01:30:02;4.20;99.90
15156;DHT22;7678;50.058;8.306;2023-02-21T01:32:48;4.10;99.90
15156;DHT22;7678;50.058;8.306;2023-02-21T01:35:33;4.30;99.90
15156;DHT22;7678;50.058;8.306;2023-02-21T01:38:19;4.40;99.90
15156;DHT22;7678;50.058;8.306;2023-02-21T01:41:06;4.30;99.90
15156;DHT22;7678;50.058;8.306;2023-02-21T01:43:57;4.30;99.90
15156;DHT22;7678;50.058;8.306;2023-02-21T01:46:42;4.30;99.90
15156;DHT22;7678;50.058;8.306;2023-02-21T01:49:28;4.40;99.90
15156;DHT22;7678;50.058;8.306;2023-02-21T01:52:13;4.30;99.90
15156;DHT22;7678;50.058;8.306;2023-02-21T01:54:59;4.20;99.90
15156;DHT22;7678;50.058;8.306;2023-02-21T01:57:46;4.10;99.90
15156;DHT22;7678;50.058;8.306;2023-02-21T02:00:31;4.20;99.90
15156;DHT22;7678;50.058;8.306;2023-02-21T02:03:18;4.00;99.90
15156;DHT22;7678;50.058;8.306;2023-02-21T02:06:06;4.20;99.90
15156;DHT22;7678;50.058;8.306;2023-02-21T02:08:52;4.10;99.90
15156;DHT22;7678;50.058;8.306;2023-02-21T02:11:49;4.20;99.90
15156;DHT22;7678;50.058;8.306;2023-02-21T02:14:50;4.00;99.90
15156;DHT22;7678;50.058;8.306;2023-02-21T02:17:30;3.80;99.90
15156;DHT22;7678;50.058;8.306;2023-02-21T02:20:21;3.90;99.90
15156;DHT22;7678;50.058;8.306;2023-02-21T02:23:38;4.00;99.90
15156;DHT22;7678;50.058;8.306;2023-02-21T02:26:50;4.00;99.90
15156;DHT22;7678;50.058;8.306;2023-02-21T02:29:37;3.80;99.90
15156;DHT22;7678;50.058;8.306;2023-02-21T02:32:30;3.80;99.90
15156;DHT22;7678;50.058;8.306;2023-02-21T02:35:03;3.90;99.90
15156;DHT22;7678;50.058;8.306;2023-02-21T02:37:37;3.90;99.90
15156;DHT22;7678;50.058;8.306;2023-02-21T02:40:14;3.90;99.90
15156;DHT22;7678;50.058;8.306;2023-02-21T02:42:59;3.80;99.90
15156;DHT22;7678;50.058;8.306;2023-02-21T02:45:33;4.10;99.90
15156;DHT22;7678;50.058;8.306;2023-02-21T02:48:11;4.10;99.90
15156;DHT22;7678;50.058;8.306;2023-02-21T02:50:45;4.10;99.90
15156;DHT22;7678;50.058;8.306;2023-02-21T02:53:16;3.80;99.90
15156;DHT22;7678;50.058;8.306;2023-02-21T02:55:48;3.70;99.90
15156;DHT22;7678;50.058;8.306;2023-02-21T02:58:18;3.90;99.90
15156;DHT22;7678;50.058;8.306;2023-02-21T03:00:56;4.00;99.90
15156;DHT22;7678;50.058;8.306;2023-02-21T03:03:41;3.90;99.90
15156;DHT22;7678;50.058;8.306;2023-02-21T03:06:21;3.80;99.90
15156;DHT22;7678;50.058;8.306;2023-02-21T03:08:52;3.70;99.90
15156;DHT22;7678;50.058;8.306;2023-02-21T03:11:25;3.90;99.90
15156;DHT22;7678;50.058;8.306;2023-02-21T03:13:56;3.90;99.90
15156;DHT22;7678;50.058;8.306;2023-02-21T03:16:30;3.80;99.90
15156;DHT22;7678;50.058;8.306;2023-02-21T03:19:02;3.50;99.90
15156;DHT22;7678;50.058;8.306;2023-02-21T03:21:36;3.60;99.90
15156;DHT22;7678;50.058;8.306;2023-02-21T03:24:07;3.50;99.90
15156;DHT22;7678;50.058;8.306;2023-02-21T03:26:38;3.60;99.90
15156;DHT22;7678;50.058;8.306;2023-02-21T03:29:07;3.60;99.90
15156;DHT22;7678;50.058;8.306;2023-02-21T03:31:42;3.70;99.90
15156;DHT22;7678;50.058;8.306;2023-02-21T03:34:11;3.70;99.90
15156;DHT22;7678;50.058;8.306;2023-02-21T03:36:41;3.70;99.90
15156;DHT22;7678;50.058;8.306;2023-02-21T03:39:09;3.70;99.90
15156;DHT22;7678;50.058;8.306;2023-02-21T03:41:37;3.80;99.90
15156;DHT22;7678;50.058;8.306;2023-02-21T03:44:05;3.70;99.90
15156;DHT22;7678;50.058;8.306;2023-02-21T03:46:33;3.50;99.90
15156;DHT22;7678;50.058;8.306;2023-02-21T03:49:01;3.20;99.90
15156;DHT22;7678;50.058;8.306;2023-02-21T03:51:29;3.10;99.90
15156;DHT22;7678;50.058;8.306;2023-02-21T03:53:59;3.30;99.90
15156;DHT22;7678;50.058;8.306;2023-02-21T03:56:27;3.20;99.90
15156;DHT22;7678;50.058;8.306;2023-02-21T03:59:07;3.00;99.90
15156;DHT22;7678;50.058;8.306;2023-02-21T04:01:36;3.10;99.90
15156;DHT22;7678;50.058;8.306;2023-02-21T04:04:04;3.30;99.90
15156;DHT22;7678;50.058;8.306;2023-02-21T04:06:32;3.50;99.90
15156;DHT22;7678;50.058;8.306;2023-02-21T04:09:01;3.40;99.90
15156;DHT22;7678;50.058;8.306;2023-02-21T04:11:30;3.30;99.90
15156;DHT22;7678;50.058;8.306;2023-02-21T04:13:58;3.30;99.90
15156;DHT22;7678;50.058;8.306;2023-02-21T04:16:26;3.40;99.90
15156;DHT22;7678;50.058;8.306;2023-02-21T04:18:54;3.40;99.90
15156;DHT22;7678;50.058;8.306;2023-02-21T04:21:22;3.40;99.90
15156;DHT22;7678;50.058;8.306;2023-02-21T04:23:50;3.40;99.90
15156;DHT22;7678;50.058;8.306;2023-02-21T04:26:20;3.40;99.90
15156;DHT22;7678;50.058;8.306;2023-02-21T04:28:50;3.40;99.90
15156;DHT22;7678;50.058;8.306;2023-02-21T04:31:18;3.10;99.90
15156;DHT22;7678;50.058;8.306;2023-02-21T04:33:46;2.90;99.90
15156;DHT22;7678;50.058;8.306;2023-02-21T04:36:20;2.90;99.90
15156;DHT22;7678;50.058;8.306;2023-02-21T04:38:48;2.90;99.90
15156;DHT22;7678;50.058;8.306;2023-02-21T04:41:17;3.10;99.90
15156;DHT22;7678;50.058;8.306;2023-02-21T04:43:46;3.10;99.90
15156;DHT22;7678;50.058;8.306;2023-02-21T04:46:16;2.90;99.90
15156;DHT22;7678;50.058;8.306;2023-02-21T04:48:46;2.90;99.90
15156;DHT22;7678;50.058;8.306;2023-02-21T04:51:16;2.90;99.90
15156;DHT22;7678;50.058;8.306;2023-02-21T04:53:46;3.00;99.90
15156;DHT22;7678;50.058;8.306;2023-02-21T04:56:14;3.00;99.90
15156;DHT22;7678;50.058;8.306;2023-02-21T04:58:44;3.00;99.90
15156;DHT22;7678;50.058;8.306;2023-02-21T05:01:14;3.00;99.90
15156;DHT22;7678;50.058;8.306;2023-02-21T05:03:43;3.00;99.90
15156;DHT22;7678;50.058;8.306;2023-02-21T05:06:16;2.90;99.90
15156;DHT22;7678;50.058;8.306;2023-02-21T05:08:45;2.80;99.90
15156;DHT22;7678;50.058;8.306;2023-02-21T05:11:13;2.90;99.90
15156;DHT22;7678;50.058;8.306;2023-02-21T05:13:42;2.90;99.90
15156;DHT22;7678;50.058;8.306;2023-02-21T05:16:10;2.90;99.90
15156;DHT22;7678;50.058;8.306;2023-02-21T05:18:42;2.90;99.90
15156;DHT22;7678;50.058;8.306;2023-02-21T05:21:10;2.90;99.90
15156;DHT22;7678;50.058;8.306;2023-02-21T05:23:41;3.00;99.90
15156;DHT22;7678;50.058;8.306;2023-02-21T05:26:20;3.00;99.90
15156;DHT22;7678;50.058;8.306;2023-02-21T05:28:49;2.70;99.90
15156;DHT22;7678;50.058;8.306;2023-02-21T05:31:18;2.60;99.90
15156;DHT22;7678;50.058;8.306;2023-02-21T05:33:48;2.50;99.90
15156;DHT22;7678;50.058;8.306;2023-02-21T05:36:16;2.60;99.90
15156;DHT22;7678;50.058;8.306;2023-02-21T05:38:45;2.80;99.90
15156;DHT22;7678;50.058;8.306;2023-02-21T05:41:14;2.80;99.90
15156;DHT22;7678;50.058;8.306;2023-02-21T05:43:43;2.70;99.90
15156;DHT22;7678;50.058;8.306;2023-02-21T05:46:23;2.70;99.90
15156;DHT22;7678;50.058;8.306;2023-02-21T05:48:54;2.80;99.90
15156;DHT22;7678;50.058;8.306;2023-02-21T05:51:23;2.70;99.90
15156;DHT22;7678;50.058;8.306;2023-02-21T05:53:52;2.70;99.90
15156;DHT22;7678;50.058;8.306;2023-02-21T05:56:20;2.70;99.90
15156;DHT22;7678;50.058;8.306;2023-02-21T05:58:48;2.70;99.90
15156;DHT22;7678;50.058;8.306;2023-02-21T06:01:16;2.70;99.90
15156;DHT22;7678;50.058;8.306;2023-02-21T06:03:44;2.60;99.90
15156;DHT22;7678;50.058;8.306;2023-02-21T06:06:16;2.70;99.90
15156;DHT22;7678;50.058;8.306;2023-02-21T06:08:46;2.80;99.90
15156;DHT22;7678;50.058;8.306;2023-02-21T06:11:15;3.00;99.90
15156;DHT22;7678;50.058;8.306;2023-02-21T06:13:49;3.00;99.90
15156;DHT22;7678;50.058;8.306;2023-02-21T06:16:18;3.00;99.90
15156;DHT22;7678;50.058;8.306;2023-02-21T06:18:49;2.90;99.90
15156;DHT22;7678;50.058;8.306;2023-02-21T06:21:18;2.90;99.90
15156;DHT22;7678;50.058;8.306;2023-02-21T06:23:47;2.90;99.90
15156;DHT22;7678;50.058;8.306;2023-02-21T06:26:16;2.90;99.90
15156;DHT22;7678;50.058;8.306;2023-02-21T06:28:45;2.70;99.90
15156;DHT22;7678;50.058;8.306;2023-02-21T06:31:13;2.70;99.90
15156;DHT22;7678;50.058;8.306;2023-02-21T06:33:42;2.60;99.90
15156;DHT22;7678;50.058;8.306;2023-02-21T06:36:12;2.60;99.90
15156;DHT22;7678;50.058;8.306;2023-02-21T06:38:44;2.70;99.90
15156;DHT22;7678;50.058;8.306;2023-02-21T06:41:14;2.50;99.90
15156;DHT22;7678;50.058;8.306;2023-02-21T06:43:43;2.50;99.90
15156;DHT22;7678;50.058;8.306;2023-02-21T06:46:14;2.60;99.90
15156;DHT22;7678;50.058;8.306;2023-02-21T06:48:43;2.70;99.90
15156;DHT22;7678;50.058;8.306;2023-02-21T06:51:11;2.60;99.90
15156;DHT22;7678;50.058;8.306;2023-02-21T06:53:41;2.60;99.90
15156;DHT22;7678;50.058;8.306;2023-02-21T06:56:10;2.70;99.90
15156;DHT22;7678;50.058;8.306;2023-02-21T06:58:38;2.70;99.90
15156;DHT22;7678;50.058;8.306;2023-02-21T07:01:06;2.70;99.90
15156;DHT22;7678;50.058;8.306;2023-02-21T07:03:38;2.90;99.90
15156;DHT22;7678;50.058;8.306;2023-02-21T07:06:06;2.80;99.90
15156;DHT22;7678;50.058;8.306;2023-02-21T07:08:34;2.80;99.90
15156;DHT22;7678;50.058;8.306;2023-02-21T07:11:02;2.90;99.90
15156;DHT22;7678;50.058;8.306;2023-02-21T07:13:32;3.00;99.90
15156;DHT22;7678;50.058;8.306;2023-02-21T07:16:01;3.10;99.90
15156;DHT22;7678;50.058;8.306;2023-02-21T07:18:29;3.20;99.90
15156;DHT22;7678;50.058;8.306;2023-02-21T07:20:58;3.30;99.90
15156;DHT22;7678;50.058;8.306;2023-02-21T07:23:26;3.20;99.90
15156;DHT22;7678;50.058;8.306;2023-02-21T07:25:54;3.20;99.90
15156;DHT22;7678;50.058;8.306;2023-02-21T07:28:22;3.20;99.90
15156;DHT22;7678;50.058;8.306;2023-02-21T07:30:51;3.30;99.90
15156;DHT22;7678;50.058;8.306;2023-02-21T07:33:19;3.40;99.90
15156;DHT22;7678;50.058;8.306;2023-02-21T07:35:47;3.50;99.90
15156;DHT22;7678;50.058;8.306;2023-02-21T07:38:19;3.70;99.90
15156;DHT22;7678;50.058;8.306;2023-02-21T07:40:47;3.80;99.90
15156;DHT22;7678;50.058;8.306;2023-02-21T07:43:16;4.00;99.90
15156;DHT22;7678;50.058;8.306;2023-02-21T07:45:44;4.10;99.90
15156;DHT22;7678;50.058;8.306;2023-02-21T07:48:13;4.10;99.90
15156;DHT22;7678;50.058;8.306;2023-02-21T07:50:42;4.20;99.90
15156;DHT22;7678;50.058;8.306;2023-02-21T07:53:11;4.30;99.90
15156;DHT22;7678;50.058;8.306;2023-02-21T07:55:39;4.40;99.90
15156;DHT22;7678;50.058;8.306;2023-02-21T07:58:07;4.50;99.90
15156;DHT22;7678;50.058;8.306;2023-02-21T08:00:36;4.60;99.90
15156;DHT22;7678;50.058;8.306;2023-02-21T08:03:07;4.70;99.90
15156;DHT22;7678;50.058;8.306;2023-02-21T08:05:38;4.90;99.90
15156;DHT22;7678;50.058;8.306;2023-02-21T08:08:06;5.00;99.90
15156;DHT22;7678;50.058;8.306;2023-02-21T08:10:35;5.00;99.90
15156;DHT22;7678;50.058;8.306;2023-02-21T08:13:04;5.10;99.90
15156;DHT22;7678;50.058;8.306;2023-02-21T08:15:33;5.20;99.90
15156;DHT22;7678;50.058;8.306;2023-02-21T08:18:01;5.20;99.90
15156;DHT22;7678;50.058;8.306;2023-02-21T08:20:29;5.30;99.90
15156;DHT22;7678;50.058;8.306;2023-02-21T08:22:58;5.30;99.90
15156;DHT22;7678;50.058;8.306;2023-02-21T08:25:26;5.50;99.90
15156;DHT22;7678;50.058;8.306;2023-02-21T08:27:55;5.60;99.90
15156;DHT22;7678;50.058;8.306;2023-02-21T08:30:23;5.80;99.90
15156;DHT22;7678;50.058;8.306;2023-02-21T08:32:51;5.90;99.90
15156;DHT22;7678;50.058;8.306;2023-02-21T08:35:20;5.90;99.90
15156;DHT22;7678;50.058;8.306;2023-02-21T08:37:49;6.00;99.90
15156;DHT22;7678;50.058;8.306;2023-02-21T08:40:23;6.00;99.90
15156;DHT22;7678;50.058;8.306;2023-02-21T08:42:52;6.00;99.90
15156;DHT22;7678;50.058;8.306;2023-02-21T08:45:22;6.10;99.90
15156;DHT22;7678;50.058;8.306;2023-02-21T08:47:51;6.10;99.90
15156;DHT22;7678;50.058;8.306;2023-02-21T08:50:22;6.20;99.90
15156;DHT22;7678;50.058;8.306;2023-02-21T08:52:51;6.30;99.90
15156;DHT22;7678;50.058;8.306;2023-02-21T08:55:19;6.30;99.90
15156;DHT22;7678;50.058;8.306;2023-02-21T08:57:51;6.40;99.90
15156;DHT22;7678;50.058;8.306;2023-02-21T09:00:21;6.40;99.90
15156;DHT22;7678;50.058;8.306;2023-02-21T09:02:50;6.50;99.90
15156;DHT22;7678;50.058;8.306;2023-02-21T09:05:21;6.50;99.90
15156;DHT22;7678;50.058;8.306;2023-02-21T09:07:50;6.60;99.90
15156;DHT22;7678;50.058;8.306;2023-02-21T09:10:21;6.70;99.90
15156;DHT22;7678;50.058;8.306;2023-02-21T09:12:54;6.90;99.90
15156;DHT22;7678;50.058;8.306;2023-02-21T09:15:24;7.00;99.90
15156;DHT22;7678;50.058;8.306;2023-02-21T09:17:52;7.00;99.90
15156;DHT22;7678;50.058;8.306;2023-02-21T09:20:23;7.00;99.90
15156;DHT22;7678;50.058;8.306;2023-02-21T09:22:52;7.10;99.90
15156;DHT22;7678;50.058;8.306;2023-02-21T09:25:22;7.10;99.90
15156;DHT22;7678;50.058;8.306;2023-02-21T09:27:52;7.10;99.90
15156;DHT22;7678;50.058;8.306;2023-02-21T09:30:22;7.20;99.90
15156;DHT22;7678;50.058;8.306;2023-02-21T09:32:52;7.20;99.90
15156;DHT22;7678;50.058;8.306;2023-02-21T09:35:21;7.30;99.90
15156;DHT22;7678;50.058;8.306;2023-02-21T09:37:49;7.40;99.90
15156;DHT22;7678;50.058;8.306;2023-02-21T09:40:26;7.40;99.90
15156;DHT22;7678;50.058;8.306;2023-02-21T09:42:58;7.60;99.90
15156;DHT22;7678;50.058;8.306;2023-02-21T09:45:30;7.70;99.90
15156;DHT22;7678;50.058;8.306;2023-02-21T09:48:03;7.80;99.90
15156;DHT22;7678;50.058;8.306;2023-02-21T09:50:36;7.90;99.90
15156;DHT22;7678;50.058;8.306;2023-02-21T09:53:07;7.80;99.90
15156;DHT22;7678;50.058;8.306;2023-02-21T09:55:37;7.90;99.90
15156;DHT22;7678;50.058;8.306;2023-02-21T09:58:11;7.90;99.90
15156;DHT22;7678;50.058;8.306;2023-02-21T10:00:40;7.90;99.90
15156;DHT22;7678;50.058;8.306;2023-02-21T10:03:30;7.70;99.90
15156;DHT22;7678;50.058;8.306;2023-02-21T10:06:10;7.70;99.90
15156;DHT22;7678;50.058;8.306;2023-02-21T10:08:46;7.70;99.90
15156;DHT22;7678;50.058;8.306;2023-02-21T10:11:30;7.80;99.90
15156;DHT22;7678;50.058;8.306;2023-02-21T10:14:10;7.70;99.90
15156;DHT22;7678;50.058;8.306;2023-02-21T10:16:45;7.90;99.90
15156;DHT22;7678;50.058;8.306;2023-02-21T10:19:18;8.00;99.90
15156;DHT22;7678;50.058;8.306;2023-02-21T10:21:48;8.00;99.90
15156;DHT22;7678;50.058;8.306;2023-02-21T10:24:19;8.10;99.90
15156;DHT22;7678;50.058;8.306;2023-02-21T10:26:52;8.20;99.90
15156;DHT22;7678;50.058;8.306;2023-02-21T10:29:26;8.20;99.90
15156;DHT22;7678;50.058;8.306;2023-02-21T10:32:00;8.40;99.90
15156;DHT22;7678;50.058;8.306;2023-02-21T10:34:31;8.50;99.90
15156;DHT22;7678;50.058;8.306;2023-02-21T10:37:05;8.50;99.90
15156;DHT22;7678;50.058;8.306;2023-02-21T10:39:41;8.70;99.90
15156;DHT22;7678;50.058;8.306;2023-02-21T10:42:13;8.90;99.90
15156;DHT22;7678;50.058;8.306;2023-02-21T10:44:46;8.90;99.90
15156;DHT22;7678;50.058;8.306;2023-02-21T10:47:18;8.90;99.90
15156;DHT22;7678;50.058;8.306;2023-02-21T10:49:51;9.00;99.90
15156;DHT22;7678;50.058;8.306;2023-02-21T10:52:23;9.10;99.90
15156;DHT22;7678;50.058;8.306;2023-02-21T10:55:01;9.10;99.90
15156;DHT22;7678;50.058;8.306;2023-02-21T10:57:31;9.50;99.90
15156;DHT22;7678;50.058;8.306;2023-02-21T11:00:01;9.60;99.90
15156;DHT22;7678;50.058;8.306;2023-02-21T11:02:38;9.70;99.90
15156;DHT22;7678;50.058;8.306;2023-02-21T11:05:12;9.80;99.90
15156;DHT22;7678;50.058;8.306;2023-02-21T11:07:41;9.80;99.90
15156;DHT22;7678;50.058;8.306;2023-02-21T11:10:33;9.90;99.90
15156;DHT22;7678;50.058;8.306;2023-02-21T11:13:12;9.90;99.90
15156;DHT22;7678;50.058;8.306;2023-02-21T11:15:40;10.20;99.90
15156;DHT22;7678;50.058;8.306;2023-02-21T11:18:15;10.40;99.90
15156;DHT22;7678;50.058;8.306;2023-02-21T11:20:44;10.40;99.90
15156;DHT22;7678;50.058;8.306;2023-02-21T11:23:22;10.50;99.90
15156;DHT22;7678;50.058;8.306;2023-02-21T11:25:57;10.50;99.90
15156;DHT22;7678;50.058;8.306;2023-02-21T11:28:27;10.60;99.90
15156;DHT22;7678;50.058;8.306;2023-02-21T11:31:10;10.50;99.90
15156;DHT22;7678;50.058;8.306;2023-02-21T11:33:43;10.80;99.90
15156;DHT22;7678;50.058;8.306;2023-02-21T11:36:17;10.80;99.90
15156;DHT22;7678;50.058;8.306;2023-02-21T11:39:01;11.10;99.90
15156;DHT22;7678;50.058;8.306;2023-02-21T11:41:36;11.10;99.90
15156;DHT22;7678;50.058;8.306;2023-02-21T11:44:29;11.30;99.90
15156;DHT22;7678;50.058;8.306;2023-02-21T11:47:10;11.30;99.90
15156;DHT22;7678;50.058;8.306;2023-02-21T11:49:47;11.40;99.90
15156;DHT22;7678;50.058;8.306;2023-02-21T11:52:21;11.50;99.90
15156;DHT22;7678;50.058;8.306;2023-02-21T11:54:51;11.50;99.90
15156;DHT22;7678;50.058;8.306;2023-02-21T11:57:25;11.50;99.90
15156;DHT22;7678;50.058;8.306;2023-02-21T12:00:06;11.70;99.90
15156;DHT22;7678;50.058;8.306;2023-02-21T12:02:46;11.60;99.90
15156;DHT22;7678;50.058;8.306;2023-02-21T12:05:34;11.70;99.90
15156;DHT22;7678;50.058;8.306;2023-02-21T12:11:18;11.60;99.90
15156;DHT22;7678;50.058;8.306;2023-02-21T12:13:56;11.80;99.90
15156;DHT22;7678;50.058;8.306;2023-02-21T12:16:44;11.90;99.90
15156;DHT22;7678;50.058;8.306;2023-02-21T12:19:25;12.00;99.90
15156;DHT22;7678;50.058;8.306;2023-02-21T12:22:01;11.80;99.90
15156;DHT22;7678;50.058;8.306;2023-02-21T12:24:43;11.90;99.90
15156;DHT22;7678;50.058;8.306;2023-02-21T12:27:37;12.00;99.90
15156;DHT22;7678;50.058;8.306;2023-02-21T12:30:43;12.00;99.90
15156;DHT22;7678;50.058;8.306;2023-02-21T12:33:26;12.20;99.90
15156;DHT22;7678;50.058;8.306;2023-02-21T12:36:12;12.20;99.90
15156;DHT22;7678;50.058;8.306;2023-02-21T12:39:00;12.30;99.90
15156;DHT22;7678;50.058;8.306;2023-02-21T12:41:43;12.70;99.90
15156;DHT22;7678;50.058;8.306;2023-02-21T12:44:18;12.60;99.90
15156;DHT22;7678;50.058;8.306;2023-02-21T12:46:53;12.40;99.90
15156;DHT22;7678;50.058;8.306;2023-02-21T12:49:27;12.30;99.90
15156;DHT22;7678;50.058;8.306;2023-02-21T12:52:00;12.40;99.90
15156;DHT22;7678;50.058;8.306;2023-02-21T12:54:37;12.60;99.90
15156;DHT22;7678;50.058;8.306;2023-02-21T12:57:10;12.60;99.90
15156;DHT22;7678;50.058;8.306;2023-02-21T12:59:48;12.70;99.90
15156;DHT22;7678;50.058;8.306;2023-02-21T13:02:26;12.90;99.90
15156;DHT22;7678;50.058;8.306;2023-02-21T13:05:04;13.10;99.90
15156;DHT22;7678;50.058;8.306;2023-02-21T13:07:44;12.90;99.90
15156;DHT22;7678;50.058;8.306;2023-02-21T13:10:17;13.00;99.90
15156;DHT22;7678;50.058;8.306;2023-02-21T13:12:51;12.90;99.90
15156;DHT22;7678;50.058;8.306;2023-02-21T13:15:22;12.90;99.90
15156;DHT22;7678;50.058;8.306;2023-02-21T13:17:57;12.90;99.90
15156;DHT22;7678;50.058;8.306;2023-02-21T13:20:29;12.90;99.90
15156;DHT22;7678;50.058;8.306;2023-02-21T13:26:23;13.20;99.90
15156;DHT22;7678;50.058;8.306;2023-02-21T13:28:55;13.30;99.90
15156;DHT22;7678;50.058;8.306;2023-02-21T13:31:26;13.20;99.90
15156;DHT22;7678;50.058;8.306;2023-02-21T13:33:59;13.10;99.90
15156;DHT22;7678;50.058;8.306;2023-02-21T13:36:30;13.00;99.90
15156;DHT22;7678;50.058;8.306;2023-02-21T13:39:02;12.90;99.90
15156;DHT22;7678;50.058;8.306;2023-02-21T13:41:34;13.10;99.90
15156;DHT22;7678;50.058;8.306;2023-02-21T13:44:06;13.60;99.90
15156;DHT22;7678;50.058;8.306;2023-02-21T13:46:59;13.70;99.90
15156;DHT22;7678;50.058;8.306;2023-02-21T13:49:40;13.70;99.90
15156;DHT22;7678;50.058;8.306;2023-02-21T13:55:30;13.40;99.90
15156;DHT22;7678;50.058;8.306;2023-02-21T14:01:22;13.40;99.90
15156;DHT22;7678;50.058;8.306;2023-02-21T14:03:54;13.40;99.90
15156;DHT22;7678;50.058;8.306;2023-02-21T14:06:36;13.50;99.90
15156;DHT22;7678;50.058;8.306;2023-02-21T14:09:09;13.40;99.90
15156;DHT22;7678;50.058;8.306;2023-02-21T14:11:44;13.40;99.90
15156;DHT22;7678;50.058;8.306;2023-02-21T14:14:22;13.50;99.90
15156;DHT22;7678;50.058;8.306;2023-02-21T14:16:56;13.40;99.90
15156;DHT22;7678;50.058;8.306;2023-02-21T14:19:30;13.30;99.90
15156;DHT22;7678;50.058;8.306;2023-02-21T14:22:08;13.20;99.90
15156;DHT22;7678;50.058;8.306;2023-02-21T14:24:38;13.20;99.90
15156;DHT22;7678;50.058;8.306;2023-02-21T14:27:36;13.20;99.90
15156;DHT22;7678;50.058;8.306;2023-02-21T14:33:17;13.30;99.90
15156;DHT22;7678;50.058;8.306;2023-02-21T14:35:57;13.30;99.90
15156;DHT22;7678;50.058;8.306;2023-02-21T14:38:29;13.20;99.90
15156;DHT22;7678;50.058;8.306;2023-02-21T14:41:08;13.20;99.90
15156;DHT22;7678;50.058;8.306;2023-02-21T14:43:53;13.30;99.90
15156;DHT22;7678;50.058;8.306;2023-02-21T14:49:46;13.30;99.90
15156;DHT22;7678;50.058;8.306;2023-02-21T14:55:32;13.10;99.90
15156;DHT22;7678;50.058;8.306;2023-02-21T14:58:25;13.10;99.90
15156;DHT22;7678;50.058;8.306;2023-02-21T15:01:04;13.20;99.90
15156;DHT22;7678;50.058;8.306;2023-02-21T15:03:36;13.20;99.90
15156;DHT22;7678;50.058;8.306;2023-02-21T15:06:07;13.20;99.90
15156;DHT22;7678;50.058;8.306;2023-02-21T15:08:43;13.10;99.90
15156;DHT22;7678;50.058;8.306;2023-02-21T15:11:28;13.20;99.90
15156;DHT22;7678;50.058;8.306;2023-02-21T15:14:16;13.30;99.90
15156;DHT22;7678;50.058;8.306;2023-02-21T15:16:53;13.10;99.90
15156;DHT22;7678;50.058;8.306;2023-02-21T15:19:28;13.00;99.90
15156;DHT22;7678;50.058;8.306;2023-02-21T15:22:15;13.10;99.90
15156;DHT22;7678;50.058;8.306;2023-02-21T15:25:15;12.90;99.90
15156;DHT22;7678;50.058;8.306;2023-02-21T15:27:58;12.90;99.90
15156;DHT22;7678;50.058;8.306;2023-02-21T15:30:32;13.00;99.90
15156;DHT22;7678;50.058;8.306;2023-02-21T15:33:15;13.00;99.90
15156;DHT22;7678;50.058;8.306;2023-02-21T15:35:48;13.10;99.90
15156;DHT22;7678;50.058;8.306;2023-02-21T15:38:22;13.10;99.90
15156;DHT22;7678;50.058;8.306;2023-02-21T15:40:52;13.10;99.90
15156;DHT22;7678;50.058;8.306;2023-02-21T15:43:37;13.20;99.90
15156;DHT22;7678;50.058;8.306;2023-02-21T15:46:07;13.10;99.90
15156;DHT22;7678;50.058;8.306;2023-02-21T15:48:37;13.10;99.90
15156;DHT22;7678;50.058;8.306;2023-02-21T15:51:07;13.10;99.90
15156;DHT22;7678;50.058;8.306;2023-02-21T15:53:36;13.00;99.90
15156;DHT22;7678;50.058;8.306;2023-02-21T15:56:17;12.90;99.90
15156;DHT22;7678;50.058;8.306;2023-02-21T15:59:09;12.90;99.90
15156;DHT22;7678;50.058;8.306;2023-02-21T16:01:38;13.00;99.90
15156;DHT22;7678;50.058;8.306;2023-02-21T16:04:15;12.90;99.90
15156;DHT22;7678;50.058;8.306;2023-02-21T16:06:49;12.80;99.90
15156;DHT22;7678;50.058;8.306;2023-02-21T16:09:22;12.80;99.90
15156;DHT22;7678;50.058;8.306;2023-02-21T16:11:53;12.80;99.90
15156;DHT22;7678;50.058;8.306;2023-02-21T16:14:28;12.60;99.90
15156;DHT22;7678;50.058;8.306;2023-02-21T16:17:12;12.60;99.90
15156;DHT22;7678;50.058;8.306;2023-02-21T16:19:45;12.40;99.90
15156;DHT22;7678;50.058;8.306;2023-02-21T16:22:29;12.30;99.90
15156;DHT22;7678;50.058;8.306;2023-02-21T16:25:15;12.20;99.90
15156;DHT22;7678;50.058;8.306;2023-02-21T16:27:47;12.10;99.90
15156;DHT22;7678;50.058;8.306;2023-02-21T16:30:19;12.00;99.90
15156;DHT22;7678;50.058;8.306;2023-02-21T16:32:48;11.90;99.90
15156;DHT22;7678;50.058;8.306;2023-02-21T16:35:19;11.80;99.90
15156;DHT22;7678;50.058;8.306;2023-02-21T16:37:48;11.60;99.90
15156;DHT22;7678;50.058;8.306;2023-02-21T16:40:19;11.40;99.90
15156;DHT22;7678;50.058;8.306;2023-02-21T16:42:50;11.20;99.90
15156;DHT22;7678;50.058;8.306;2023-02-21T16:45:19;11.10;99.90
15156;DHT22;7678;50.058;8.306;2023-02-21T16:47:49;11.00;99.90
15156;DHT22;7678;50.058;8.306;2023-02-21T16:50:20;10.90;99.90
15156;DHT22;7678;50.058;8.306;2023-02-21T16:52:49;10.90;99.90
15156;DHT22;7678;50.058;8.306;2023-02-21T16:55:17;10.70;99.90
15156;DHT22;7678;50.058;8.306;2023-02-21T16:57:47;10.50;99.90
15156;DHT22;7678;50.058;8.306;2023-02-21T17:00:20;10.40;99.90
15156;DHT22;7678;50.058;8.306;2023-02-21T17:02:48;10.40;99.90
15156;DHT22;7678;50.058;8.306;2023-02-21T17:05:17;10.20;99.90
15156;DHT22;7678;50.058;8.306;2023-02-21T17:07:47;10.10;99.90
15156;DHT22;7678;50.058;8.306;2023-02-21T17:10:15;10.10;99.90